createdAt,value
2019-03-26T00:00:52.933Z,6.61
2019-03-26T00:03:25.234Z,6.65
2019-03-26T00:05:57.529Z,6.65
2019-03-26T00:08:29.842Z,6.66
2019-03-26T00:11:02.138Z,6.71
2019-03-26T00:13:36.980Z,6.78
2019-03-26T00:16:09.388Z,6.74
2019-03-26T00:18:41.615Z,6.74
2019-03-26T00:21:14.996Z,6.75
2019-03-26T00:23:47.799Z,6.70
2019-03-26T00:26:20.593Z,6.67
2019-03-26T00:28:52.885Z,6.64
2019-03-26T00:31:25.190Z,6.62
2019-03-26T00:33:57.548Z,6.65
2019-03-26T00:36:30.601Z,6.67
2019-03-26T00:39:02.953Z,6.81
2019-03-26T00:41:35.299Z,6.95
2019-03-26T00:44:08.205Z,7.04
2019-03-26T00:46:41.431Z,7.02
2019-03-26T00:49:15.623Z,7.08
2019-03-26T00:51:47.842Z,7.04
2019-03-26T00:54:20.233Z,7.02
2019-03-26T00:56:53.655Z,7.01
2019-03-26T00:59:26.109Z,6.95
2019-03-26T01:01:58.294Z,7.01
2019-03-26T01:04:33.285Z,7.00
2019-03-26T01:07:07.172Z,7.01
2019-03-26T01:09:40.138Z,6.96
2019-03-26T01:12:13.752Z,6.89
2019-03-26T01:14:46.506Z,6.83
2019-03-26T01:17:20.824Z,6.81
2019-03-26T01:19:54.055Z,6.85
2019-03-26T01:22:27.646Z,6.87
2019-03-26T01:25:00.321Z,6.89
2019-03-26T01:27:34.563Z,6.90
2019-03-26T01:30:06.928Z,6.86
2019-03-26T01:32:39.203Z,6.86
2019-03-26T01:35:11.670Z,6.84
2019-03-26T01:37:44.881Z,6.82
2019-03-26T01:40:17.202Z,6.89
2019-03-26T01:42:49.815Z,6.98
2019-03-26T01:45:22.115Z,7.11
2019-03-26T01:47:54.540Z,7.16
2019-03-26T01:50:26.771Z,7.07
2019-03-26T01:52:58.976Z,6.93
2019-03-26T01:55:31.422Z,6.81
2019-03-26T01:58:03.662Z,6.81
2019-03-26T02:00:36.871Z,6.66
2019-03-26T02:03:10.144Z,6.57
2019-03-26T02:05:42.487Z,6.50
2019-03-26T02:08:15.361Z,6.44
2019-03-26T02:10:49.487Z,6.40
2019-03-26T02:13:22.191Z,6.32
2019-03-26T02:15:54.535Z,6.31
2019-03-26T02:18:26.716Z,6.29
2019-03-26T02:20:58.900Z,6.30
2019-03-26T02:23:32.253Z,6.31
2019-03-26T02:26:05.055Z,6.25
2019-03-26T02:28:37.248Z,6.29
2019-03-26T02:31:09.496Z,6.26
2019-03-26T02:33:43.321Z,6.27
2019-03-26T02:36:16.069Z,6.23
2019-03-26T02:38:51.390Z,6.22
2019-03-26T02:41:24.031Z,6.16
2019-03-26T02:43:56.468Z,6.22
2019-03-26T02:46:28.870Z,6.26
2019-03-26T02:49:01.812Z,6.28
2019-03-26T02:51:34.196Z,6.39
2019-03-26T02:54:06.716Z,6.42
2019-03-26T02:56:39.018Z,6.45
2019-03-26T02:59:11.246Z,6.42
2019-03-26T03:01:43.642Z,6.44
2019-03-26T03:04:15.803Z,6.47
2019-03-26T03:06:48.214Z,6.48
2019-03-26T03:09:21.611Z,6.51
2019-03-26T03:11:54.000Z,6.48
2019-03-26T03:14:27.889Z,6.40
2019-03-26T03:17:00.572Z,6.37
2019-03-26T03:19:34.674Z,6.45
2019-03-26T03:22:07.003Z,6.43
2019-03-26T03:24:39.310Z,6.38
2019-03-26T03:27:12.877Z,6.36
2019-03-26T03:29:45.130Z,6.39
2019-03-26T03:32:17.309Z,6.40
2019-03-26T03:34:49.943Z,6.41
2019-03-26T03:37:22.172Z,6.40
2019-03-26T03:39:54.551Z,6.44
2019-03-26T03:42:26.669Z,6.42
2019-03-26T03:44:58.981Z,6.44
2019-03-26T03:47:34.873Z,6.41
2019-03-26T03:50:07.482Z,6.43
2019-03-26T03:52:43.340Z,6.49
2019-03-26T03:55:15.545Z,6.52
2019-03-26T03:57:52.582Z,6.47
2019-03-26T04:00:39.101Z,6.49
2019-03-26T04:03:12.068Z,6.51
2019-03-26T04:05:44.789Z,6.56
2019-03-26T04:08:17.141Z,6.56
2019-03-26T04:10:49.434Z,6.59
2019-03-26T04:13:21.703Z,6.66
2019-03-26T04:15:56.616Z,6.75
2019-03-26T04:18:28.981Z,6.81
2019-03-26T04:21:01.259Z,6.93
2019-03-26T04:23:33.689Z,6.99
2019-03-26T04:26:05.852Z,7.04
2019-03-26T04:28:38.127Z,7.10
2019-03-26T04:31:11.422Z,7.20
2019-03-26T04:33:44.994Z,7.23
2019-03-26T04:36:25.316Z,7.32
2019-03-26T04:38:52.201Z,7.36
2019-03-26T04:41:25.243Z,7.42
2019-03-26T04:44:02.706Z,7.54
2019-03-26T04:46:35.832Z,7.64
2019-03-26T04:49:09.781Z,7.69
2019-03-26T04:51:48.277Z,7.76
2019-03-26T04:54:20.646Z,7.78
2019-03-26T04:56:53.271Z,7.79
2019-03-26T04:59:25.577Z,7.86
2019-03-26T05:02:00.477Z,7.90
2019-03-26T05:04:33.061Z,7.95
2019-03-26T05:07:06.226Z,8.02
2019-03-26T05:09:40.234Z,8.15
2019-03-26T05:12:12.473Z,8.23
2019-03-26T05:14:44.800Z,8.39
2019-03-26T05:17:17.866Z,8.47
2019-03-26T05:19:55.337Z,8.65
2019-03-26T05:22:29.026Z,8.83
2019-03-26T05:25:01.875Z,8.98
2019-03-26T05:27:44.804Z,9.09
2019-03-26T05:30:09.585Z,9.24
2019-03-26T05:32:43.323Z,9.41
2019-03-26T05:35:15.764Z,9.51
2019-03-26T05:37:48.387Z,9.57
2019-03-26T05:40:24.453Z,9.65
2019-03-26T05:43:00.237Z,9.77
2019-03-26T05:45:36.266Z,9.84
2019-03-26T05:48:09.718Z,10.04
2019-03-26T05:50:44.370Z,10.19
2019-03-26T05:53:16.633Z,10.39
2019-03-26T05:55:50.247Z,10.50
2019-03-26T05:58:26.909Z,10.61
2019-03-26T06:01:01.805Z,10.68
2019-03-26T06:03:34.267Z,10.77
2019-03-26T06:06:08.506Z,10.87
2019-03-26T06:08:41.625Z,10.97
2019-03-26T06:11:14.621Z,11.03
2019-03-26T06:13:46.856Z,11.07
2019-03-26T06:16:22.756Z,11.21
2019-03-26T06:18:55.172Z,11.30
2019-03-26T06:21:27.581Z,11.46
2019-03-26T06:24:00.833Z,11.47
2019-03-26T06:26:33.281Z,11.39
2019-03-26T06:29:06.306Z,11.40
2019-03-26T06:31:40.615Z,11.49
2019-03-26T06:34:13.564Z,11.52
2019-03-26T06:36:46.113Z,11.60
2019-03-26T06:39:20.011Z,11.65
2019-03-26T06:41:54.791Z,11.65
2019-03-26T06:44:27.633Z,11.83
2019-03-26T06:47:01.916Z,12.02
2019-03-26T06:49:35.529Z,12.36
2019-03-26T06:52:09.860Z,12.36
2019-03-26T06:54:47.143Z,12.54
2019-03-26T06:57:20.202Z,12.76
2019-03-26T06:59:53.777Z,12.76
2019-03-26T07:02:27.473Z,12.89
2019-03-26T07:05:01.228Z,12.97
2019-03-26T07:07:33.748Z,13.10
2019-03-26T07:10:06.829Z,13.23
2019-03-26T07:12:39.188Z,13.44
2019-03-26T07:15:13.077Z,13.58
2019-03-26T07:17:45.498Z,13.48
2019-03-26T07:20:18.246Z,13.49
2019-03-26T07:22:54.338Z,13.65
2019-03-26T07:25:28.351Z,13.84
2019-03-26T07:28:07.698Z,14.05
2019-03-26T07:30:47.018Z,14.18
2019-03-26T07:33:19.249Z,14.31
2019-03-26T07:35:56.693Z,14.51
2019-03-26T07:38:29.165Z,14.71
2019-03-26T07:41:02.626Z,14.86
2019-03-26T07:43:34.949Z,15.13
2019-03-26T07:46:08.630Z,15.30
2019-03-26T07:48:41.901Z,15.43
2019-03-26T07:51:14.136Z,15.52
2019-03-26T07:53:47.687Z,15.62
2019-03-26T07:56:21.272Z,15.71
2019-03-26T07:58:55.419Z,16.08
2019-03-26T08:01:29.111Z,16.23
2019-03-26T08:04:02.793Z,16.45
2019-03-26T08:06:35.185Z,16.57
2019-03-26T08:09:10.977Z,16.75
2019-03-26T08:11:45.458Z,16.92
2019-03-26T08:14:17.817Z,16.93
2019-03-26T08:16:51.412Z,16.96
2019-03-26T08:19:23.769Z,16.93
2019-03-26T08:21:55.912Z,16.97
2019-03-26T08:24:27.996Z,17.14
2019-03-26T08:27:00.807Z,17.15
2019-03-26T08:29:33.193Z,17.23
2019-03-26T08:32:05.919Z,17.28
2019-03-26T08:34:38.492Z,17.47
2019-03-26T08:37:10.882Z,17.79
2019-03-26T08:39:45.823Z,17.93
2019-03-26T08:42:19.738Z,17.89
2019-03-26T08:44:53.218Z,18.03
2019-03-26T08:47:25.557Z,18.07
2019-03-26T08:49:58.224Z,18.22
2019-03-26T08:52:30.550Z,18.30
2019-03-26T08:55:05.329Z,18.33
2019-03-26T08:57:37.598Z,18.57
2019-03-26T09:00:11.901Z,18.76
2019-03-26T09:02:46.076Z,18.51
2019-03-26T09:05:21.023Z,18.31
2019-03-26T09:07:55.629Z,18.40
2019-03-26T09:10:28.773Z,18.36
2019-03-26T09:13:03.155Z,18.29
2019-03-26T09:15:40.289Z,18.20
2019-03-26T09:18:16.253Z,18.50
2019-03-26T09:20:51.850Z,18.63
2019-03-26T09:23:24.186Z,18.94
2019-03-26T09:25:57.696Z,18.58
2019-03-26T09:28:32.266Z,18.75
2019-03-26T09:31:04.556Z,18.59
2019-03-26T09:33:39.084Z,18.82
2019-03-26T09:36:14.274Z,18.68
2019-03-26T09:38:46.445Z,18.52
2019-03-26T09:41:18.798Z,18.79
2019-03-26T09:43:51.028Z,18.92
2019-03-26T09:46:23.907Z,18.84
2019-03-26T09:48:56.307Z,19.07
2019-03-26T09:51:29.811Z,18.91
2019-03-26T09:54:04.136Z,19.06
2019-03-26T09:56:39.889Z,19.42
2019-03-26T09:59:12.521Z,19.50
2019-03-26T10:01:44.963Z,19.69
2019-03-26T10:04:18.257Z,19.66
2019-03-26T10:06:51.863Z,19.64
2019-03-26T10:09:24.149Z,19.75
2019-03-26T10:11:56.419Z,19.88
2019-03-26T10:14:31.616Z,20.23
2019-03-26T10:17:05.247Z,19.85
2019-03-26T10:19:39.220Z,19.75
2019-03-26T10:22:12.067Z,19.92
2019-03-26T10:24:46.683Z,19.70
2019-03-26T10:27:18.868Z,19.39
2019-03-26T10:29:51.121Z,19.61
2019-03-26T10:32:23.517Z,19.59
2019-03-26T10:34:55.834Z,19.69
2019-03-26T10:37:29.119Z,19.82
2019-03-26T10:40:02.574Z,19.96
2019-03-26T10:42:34.932Z,19.88
2019-03-26T10:45:08.201Z,19.59
2019-03-26T10:47:41.764Z,19.78
2019-03-26T10:50:14.166Z,19.58
2019-03-26T10:52:46.457Z,19.29
2019-03-26T10:55:19.295Z,19.37
2019-03-26T11:01:01.634Z,19.78
2019-03-26T11:03:33.959Z,19.85
2019-03-26T11:06:06.353Z,20.14
2019-03-26T11:08:38.574Z,19.86
2019-03-26T11:11:10.831Z,19.50
2019-03-26T11:13:45.981Z,19.55
2019-03-26T11:16:18.307Z,19.26
2019-03-26T11:18:50.742Z,19.15
2019-03-26T11:21:23.218Z,19.06
2019-03-26T11:23:58.073Z,19.05
2019-03-26T11:26:31.963Z,18.99
2019-03-26T11:29:06.183Z,18.70
2019-03-26T11:31:38.577Z,18.80
2019-03-26T11:34:10.993Z,18.55
2019-03-26T11:36:43.320Z,18.32
2019-03-26T11:39:15.618Z,18.00
2019-03-26T11:41:47.944Z,17.98
2019-03-26T11:44:21.104Z,17.54
2019-03-26T11:46:53.448Z,17.57
2019-03-26T11:49:27.116Z,17.57
2019-03-26T11:51:59.425Z,17.51
2019-03-26T11:54:31.852Z,17.14
2019-03-26T11:57:04.159Z,16.93
2019-03-26T11:59:36.561Z,16.78
2019-03-26T12:02:10.676Z,17.26
2019-03-26T12:04:42.836Z,17.21
2019-03-26T12:07:15.087Z,17.32
2019-03-26T12:09:47.215Z,17.19
2019-03-26T12:12:19.554Z,16.91
2019-03-26T12:14:52.008Z,16.60
2019-03-26T12:17:24.277Z,16.48
2019-03-26T12:19:56.556Z,16.33
2019-03-26T12:22:31.342Z,16.12
2019-03-26T12:25:03.348Z,15.79
2019-03-26T12:27:39.523Z,15.56
2019-03-26T12:30:12.271Z,15.63
2019-03-26T12:32:45.363Z,15.42
2019-03-26T12:35:29.341Z,15.17
2019-03-26T12:38:23.532Z,15.13
2019-03-26T12:40:56.615Z,15.25
2019-03-26T12:43:28.944Z,14.93
2019-03-26T12:46:01.983Z,14.91
2019-03-26T12:48:34.563Z,15.01
2019-03-26T12:51:06.933Z,14.70
2019-03-26T12:53:39.014Z,14.87
2019-03-26T12:56:11.172Z,14.99
2019-03-26T12:58:44.249Z,14.88
2019-03-26T13:01:17.732Z,15.00
2019-03-26T13:03:49.903Z,15.16
2019-03-26T13:06:25.151Z,14.57
2019-03-26T13:08:57.394Z,14.08
2019-03-26T13:11:29.716Z,13.79
2019-03-26T13:14:03.243Z,13.70
2019-03-26T13:16:36.882Z,13.66
2019-03-26T13:19:11.066Z,13.67
2019-03-26T13:21:43.809Z,13.54
2019-03-26T13:24:16.587Z,13.55
2019-03-26T13:26:49.270Z,13.42
2019-03-26T13:29:25.825Z,13.06
2019-03-26T13:31:58.370Z,12.86
2019-03-26T13:34:30.806Z,12.89
2019-03-26T13:37:04.455Z,12.99
2019-03-26T13:39:36.898Z,13.01
2019-03-26T13:42:12.159Z,13.01
2019-03-26T13:44:44.467Z,13.11
2019-03-26T13:47:17.078Z,12.96
2019-03-26T13:49:51.540Z,12.65
2019-03-26T13:52:24.334Z,12.56
2019-03-26T13:54:58.360Z,12.33
2019-03-26T13:57:30.815Z,12.24
2019-03-26T14:00:03.075Z,12.22
2019-03-26T14:02:35.984Z,12.31
2019-03-26T14:05:12.752Z,12.21
2019-03-26T14:07:48.134Z,12.10
2019-03-26T14:10:20.621Z,12.18
2019-03-26T14:12:53.143Z,12.16
2019-03-26T14:15:26.153Z,12.06
2019-03-26T14:17:59.666Z,12.01
2019-03-26T14:20:33.189Z,11.96
2019-03-26T14:23:06.450Z,11.97
2019-03-26T14:25:40.115Z,12.06
2019-03-26T14:28:13.650Z,12.01
2019-03-26T14:30:47.742Z,12.14
2019-03-26T14:33:20.196Z,12.06
2019-03-26T14:35:52.344Z,11.84
2019-03-26T14:38:24.723Z,11.85
2019-03-26T14:40:57.191Z,11.79
2019-03-26T14:43:30.290Z,11.72
2019-03-26T14:46:02.954Z,11.69
2019-03-26T14:48:35.381Z,11.59
2019-03-26T14:51:11.879Z,11.51
2019-03-26T14:53:44.711Z,11.51
2019-03-26T14:56:17.337Z,11.47
2019-03-26T14:58:51.348Z,11.50
2019-03-26T15:01:24.906Z,11.44
2019-03-26T15:03:57.266Z,11.31
2019-03-26T15:06:29.681Z,11.28
2019-03-26T15:09:02.556Z,11.16
2019-03-26T15:11:36.051Z,11.30
2019-03-26T15:14:09.158Z,11.38
2019-03-26T15:16:44.508Z,11.28
2019-03-26T15:19:16.886Z,11.04
2019-03-26T15:21:49.352Z,10.99
2019-03-26T15:24:21.780Z,10.77
2019-03-26T15:26:54.286Z,10.92
2019-03-26T15:29:26.659Z,10.83
2019-03-26T15:31:59.435Z,10.83
2019-03-26T15:34:36.353Z,10.80
2019-03-26T15:37:06.024Z,10.48
2019-03-26T15:39:39.121Z,10.45
2019-03-26T15:42:11.969Z,10.44
2019-03-26T15:44:44.935Z,10.41
2019-03-26T15:47:17.879Z,10.51
2019-03-26T15:49:54.591Z,10.45
2019-03-26T15:52:27.929Z,10.39
2019-03-26T15:55:01.671Z,10.33
2019-03-26T15:57:34.589Z,10.27
2019-03-26T16:00:08.590Z,10.20
2019-03-26T16:02:41.186Z,10.27
2019-03-26T16:05:14.059Z,10.34
2019-03-26T16:07:47.108Z,10.21
2019-03-26T16:10:19.496Z,10.27
2019-03-26T16:12:51.959Z,10.13
2019-03-26T16:15:25.137Z,10.09
2019-03-26T16:17:57.282Z,9.98
2019-03-26T16:20:29.774Z,9.89
2019-03-26T16:23:02.098Z,9.86
2019-03-26T16:25:35.461Z,9.76
2019-03-26T16:28:10.009Z,9.82
2019-03-26T16:30:45.155Z,9.83
2019-03-26T16:33:17.429Z,9.78
2019-03-26T16:35:51.047Z,9.77
2019-03-26T16:38:23.422Z,9.81
2019-03-26T16:40:55.727Z,9.82
2019-03-26T16:43:28.347Z,9.74
2019-03-26T16:46:00.716Z,9.74
2019-03-26T16:48:33.118Z,9.80
2019-03-26T16:51:06.834Z,9.77
2019-03-26T16:53:39.214Z,9.67
2019-03-26T16:56:11.740Z,9.60
2019-03-26T16:58:43.929Z,9.54
2019-03-26T17:01:16.338Z,9.46
2019-03-26T17:03:48.658Z,9.47
2019-03-26T17:06:21.089Z,9.42
2019-03-26T17:08:53.610Z,9.32
2019-03-26T17:11:25.896Z,9.27
2019-03-26T17:13:59.137Z,9.30
2019-03-26T17:16:31.964Z,9.21
2019-03-26T17:19:04.306Z,9.23
2019-03-26T17:21:36.547Z,9.25
2019-03-26T17:24:08.935Z,9.10
2019-03-26T17:26:42.587Z,9.05
2019-03-26T17:29:14.877Z,8.95
2019-03-26T17:31:47.105Z,9.03
2019-03-26T17:34:19.504Z,8.97
2019-03-26T17:36:52.065Z,8.88
2019-03-26T17:39:24.540Z,8.70
2019-03-26T17:41:56.765Z,8.64
2019-03-26T17:44:29.733Z,8.60
2019-03-26T17:47:02.088Z,8.65
2019-03-26T17:49:34.955Z,8.65
2019-03-26T17:52:08.248Z,8.62
2019-03-26T17:54:41.700Z,8.51
2019-03-26T17:57:16.777Z,8.63
2019-03-26T17:59:49.150Z,8.54
2019-03-26T18:02:21.401Z,8.48
2019-03-26T18:04:54.067Z,8.45
2019-03-26T18:07:26.455Z,8.34
2019-03-26T18:09:58.796Z,8.34
2019-03-26T18:12:31.436Z,8.29
2019-03-26T18:15:04.054Z,8.29
2019-03-26T18:17:41.331Z,8.29
2019-03-26T18:20:15.162Z,8.42
2019-03-26T18:22:47.751Z,8.46
2019-03-26T18:25:21.254Z,8.41
2019-03-26T18:27:54.486Z,8.33
2019-03-26T18:30:27.967Z,8.37
2019-03-26T18:33:01.153Z,8.22
2019-03-26T18:35:37.570Z,8.19
2019-03-26T18:38:11.280Z,8.13
2019-03-26T18:40:45.185Z,8.08
2019-03-26T18:43:18.755Z,8.17
2019-03-26T18:45:51.617Z,8.30
2019-03-26T18:48:24.427Z,8.23
2019-03-26T18:50:57.208Z,8.22
2019-03-26T18:53:29.411Z,8.20
2019-03-26T18:56:02.455Z,8.15
2019-03-26T18:58:34.979Z,8.20
2019-03-26T19:01:09.128Z,8.26
2019-03-26T19:03:42.165Z,8.26
2019-03-26T19:06:14.506Z,8.20
2019-03-26T19:08:46.759Z,8.10
2019-03-26T19:11:19.080Z,7.95
2019-03-26T19:13:51.700Z,7.98
2019-03-26T19:16:24.869Z,8.02
2019-03-26T19:18:57.965Z,7.99
2019-03-26T19:21:30.464Z,8.13
2019-03-26T19:24:04.942Z,8.15
2019-03-26T19:26:37.900Z,8.15
2019-03-26T19:29:10.311Z,7.94
2019-03-26T19:31:42.881Z,7.75
2019-03-26T19:34:15.543Z,7.79
2019-03-26T19:36:48.003Z,7.64
2019-03-26T19:39:20.190Z,7.65
2019-03-26T19:41:52.503Z,7.28
2019-03-26T19:44:25.033Z,7.71
2019-03-26T19:46:58.629Z,7.61
2019-03-26T19:49:31.333Z,7.61
2019-03-26T19:52:03.713Z,7.51
2019-03-26T19:54:36.108Z,7.45
2019-03-26T19:57:08.451Z,7.31
2019-03-26T19:59:41.320Z,7.20
2019-03-26T20:02:13.853Z,7.20
2019-03-26T20:04:46.055Z,7.21
2019-03-26T20:07:18.301Z,7.22
2019-03-26T20:09:51.829Z,7.03
2019-03-26T20:12:24.987Z,6.98
2019-03-26T20:14:57.712Z,6.97
2019-03-26T20:17:29.915Z,6.93
2019-03-26T20:20:03.416Z,6.97
2019-03-26T20:22:37.006Z,6.87
2019-03-26T20:25:10.976Z,6.92
2019-03-26T20:27:43.367Z,6.97
2019-03-26T20:30:17.275Z,6.99
2019-03-26T20:32:50.245Z,6.88
2019-03-26T20:35:24.287Z,6.81
2019-03-26T20:37:56.477Z,6.86
2019-03-26T20:40:29.361Z,6.75
2019-03-26T20:43:03.103Z,6.83
2019-03-26T20:45:36.313Z,6.72
2019-03-26T20:48:08.714Z,6.65
2019-03-26T20:50:42.075Z,6.63
2019-03-26T20:53:18.416Z,6.71
2019-03-26T20:55:54.482Z,6.67
2019-03-26T20:58:30.307Z,6.68
2019-03-26T21:01:02.859Z,6.75
2019-03-26T21:03:35.134Z,6.75
2019-03-26T21:06:07.433Z,6.71
2019-03-26T21:08:39.768Z,6.68
2019-03-26T21:11:12.786Z,6.69
2019-03-26T21:13:50.711Z,6.69
2019-03-26T21:16:19.482Z,6.50
2019-03-26T21:18:51.901Z,6.45
2019-03-26T21:21:24.155Z,6.37
2019-03-26T21:23:56.303Z,6.33
2019-03-26T21:26:28.570Z,6.19
2019-03-26T21:29:00.859Z,6.13
2019-03-26T21:31:34.327Z,6.16
2019-03-26T21:34:06.494Z,6.08
2019-03-26T21:36:38.653Z,5.95
2019-03-26T21:39:11.555Z,5.95
2019-03-26T21:41:44.189Z,5.95
2019-03-26T21:44:17.625Z,6.06
2019-03-26T21:46:49.739Z,6.05
2019-03-26T21:49:21.855Z,6.18
2019-03-26T21:51:54.006Z,6.08
2019-03-26T21:54:26.268Z,6.10
2019-03-26T21:56:58.457Z,6.06
2019-03-26T21:59:30.648Z,6.04
2019-03-26T22:02:03.453Z,6.03
2019-03-26T22:04:35.802Z,6.00
2019-03-26T22:07:08.044Z,6.07
2019-03-26T22:09:40.965Z,5.99
2019-03-26T22:12:13.225Z,5.94
2019-03-26T22:14:46.501Z,5.96
2019-03-26T22:17:18.874Z,5.87
2019-03-26T22:19:52.260Z,5.81
2019-03-26T22:22:25.010Z,5.77
2019-03-26T22:24:58.700Z,5.71
2019-03-26T22:27:31.049Z,5.80
2019-03-26T22:30:03.380Z,5.90
2019-03-26T22:32:35.729Z,5.86
2019-03-26T22:35:08.799Z,5.87
2019-03-26T22:37:40.933Z,5.85
2019-03-26T22:40:13.624Z,5.93
2019-03-26T22:42:45.986Z,5.86
2019-03-26T22:45:18.250Z,5.94
2019-03-26T22:47:50.511Z,5.96
2019-03-26T22:50:22.913Z,6.10
2019-03-26T22:52:55.869Z,6.10
2019-03-26T22:55:28.043Z,6.08
2019-03-26T22:58:00.941Z,6.09
2019-03-26T23:00:35.583Z,5.96
2019-03-26T23:03:10.017Z,6.00
2019-03-26T23:05:47.807Z,6.03
2019-03-26T23:08:21.230Z,6.05
2019-03-26T23:10:53.477Z,6.02
2019-03-26T23:13:25.846Z,6.04
2019-03-26T23:15:58.458Z,6.14
2019-03-26T23:18:30.735Z,6.01
2019-03-26T23:21:02.949Z,6.00
2019-03-26T23:23:35.197Z,5.94
2019-03-26T23:26:08.844Z,5.97
2019-03-26T23:28:41.205Z,5.98
2019-03-26T23:31:14.109Z,5.94
2019-03-26T23:33:46.296Z,5.91
2019-03-26T23:36:19.188Z,5.83
2019-03-26T23:38:51.451Z,5.90
2019-03-26T23:41:25.362Z,5.97
2019-03-26T23:43:57.819Z,5.95
2019-03-26T23:46:30.133Z,5.96
2019-03-26T23:49:03.081Z,5.83
2019-03-26T23:51:38.955Z,5.98
2019-03-26T23:54:15.482Z,6.13
2019-03-26T23:56:47.599Z,6.24
2019-03-26T23:59:19.744Z,6.35
